Time;durP1;ratioP1;P1;durP2;ratioP2;P2;SDS_P1;SDS_P2;PMS_P1;PMS_P2;Temp;Humidity;BMP_temperature;BMP_pressure;BME280_temperature;BME280_humidity;BME280_pressure;Samples;Min_cycle;Max_cycle;Signal;HPM_P1;HPM_P2
2022/08/21 00:01:25;;;;;;;3.60;3.30;;;19.60;99.90;;;;;;615649;233;26540;-67
2022/08/21 00:03:52;;;;;;;4.60;3.90;;;19.60;99.90;;;;;;615478;234;26939;-67
2022/08/21 00:06:20;;;;;;;5.37;3.83;;;19.60;99.90;;;;;;616687;231;26536;-67
2022/08/21 00:08:48;;;;;;;4.65;4.00;;;19.60;99.90;;;;;;616963;232;26572;-66
2022/08/21 00:11:16;;;;;;;3.70;3.40;;;19.60;99.90;;;;;;616567;232;26603;-67
2022/08/21 00:13:44;;;;;;;4.32;3.22;;;19.60;99.90;;;;;;616520;233;26583;-67
2022/08/21 00:16:12;;;;;;;3.60;3.30;;;19.60;99.90;;;;;;616298;232;26593;-67
2022/08/21 00:18:39;;;;;;;4.30;3.47;;;19.50;99.90;;;;;;616222;233;26567;-67
2022/08/21 00:21:06;;;;;;;5.37;4.00;;;19.50;99.90;;;;;;616231;232;27201;-67
2022/08/21 00:23:33;;;;;;;5.65;3.65;;;19.50;99.90;;;;;;616143;232;26556;-67
2022/08/21 00:26:00;;;;;;;3.65;3.00;;;19.50;99.90;;;;;;615871;233;26841;-67
2022/08/21 00:28:27;;;;;;;4.22;3.35;;;19.50;99.90;;;;;;615934;232;26613;-67
2022/08/21 00:30:56;;;;;;;4.43;3.42;;;19.50;99.90;;;;;;615909;232;27347;-67
2022/08/21 00:33:22;;;;;;;4.25;3.35;;;19.40;99.90;;;;;;615891;232;26575;-67
2022/08/21 00:35:49;;;;;;;4.45;3.40;;;19.50;99.90;;;;;;615983;228;26832;-66
2022/08/21 00:38:18;;;;;;;4.25;3.15;;;19.40;99.90;;;;;;616006;233;26617;-67
2022/08/21 00:40:46;;;;;;;4.05;3.05;;;19.40;99.90;;;;;;616017;233;26638;-67
2022/08/21 00:43:14;;;;;;;4.07;3.22;;;19.40;99.90;;;;;;615422;233;26568;-66
2022/08/21 00:45:42;;;;;;;3.37;3.15;;;19.40;99.90;;;;;;615660;233;26557;-66
2022/08/21 00:48:10;;;;;;;3.55;3.25;;;19.40;99.90;;;;;;615658;233;26599;-66
2022/08/21 00:50:39;;;;;;;3.22;2.97;;;19.40;99.90;;;;;;615596;233;26560;-66
2022/08/21 00:53:06;;;;;;;3.08;2.87;;;19.30;99.90;;;;;;615740;234;26536;-66
2022/08/21 00:55:33;;;;;;;3.37;2.83;;;19.30;99.90;;;;;;615977;234;26571;-66
2022/08/21 00:58:00;;;;;;;3.47;3.10;;;19.30;99.90;;;;;;615994;233;26779;-67
2022/08/21 01:00:29;;;;;;;3.30;3.00;;;19.30;99.90;;;;;;615966;234;26537;-67
2022/08/21 01:02:56;;;;;;;3.00;2.80;;;19.30;99.90;;;;;;600875;234;26647;-67
2022/08/21 01:05:24;;;;;;;3.03;2.83;;;19.20;99.90;;;;;;615588;234;26596;-67
2022/08/21 01:07:52;;;;;;;3.30;3.00;;;19.30;99.90;;;;;;615615;228;26565;-67
2022/08/21 01:10:19;;;;;;;3.20;2.90;;;19.20;99.90;;;;;;615656;233;26544;-67
2022/08/21 01:12:47;;;;;;;2.90;2.67;;;19.30;99.90;;;;;;615674;234;26832;-66
2022/08/21 01:15:15;;;;;;;3.15;2.85;;;19.20;99.90;;;;;;615626;234;26579;-66
2022/08/21 01:17:41;;;;;;;4.05;2.92;;;19.10;99.90;;;;;;616499;231;26795;-67
2022/08/21 01:20:11;;;;;;;3.08;2.75;;;19.00;99.90;;;;;;616989;232;26580;-66
2022/08/21 01:22:38;;;;;;;3.37;2.75;;;19.00;99.90;;;;;;616606;233;26615;-66
2022/08/21 01:25:06;;;;;;;2.85;2.65;;;18.90;99.90;;;;;;616502;232;26586;-67
2022/08/21 01:27:33;;;;;;;2.90;2.70;;;18.80;99.90;;;;;;616651;228;26549;-67
2022/08/21 01:30:01;;;;;;;3.10;2.90;;;18.80;99.90;;;;;;616250;232;26801;-66
2022/08/21 01:32:29;;;;;;;2.70;2.50;;;18.80;99.90;;;;;;615262;233;26560;-67
2022/08/21 01:34:56;;;;;;;3.20;2.90;;;18.70;99.90;;;;;;616150;232;26619;-67
2022/08/21 01:37:24;;;;;;;2.92;2.70;;;18.80;99.90;;;;;;615945;233;26613;-67
2022/08/21 01:39:51;;;;;;;2.47;2.37;;;18.70;99.90;;;;;;615857;233;26845;-67
2022/08/21 01:42:18;;;;;;;2.67;2.47;;;18.70;99.90;;;;;;615910;233;26619;-67
2022/08/21 01:44:45;;;;;;;2.70;2.50;;;18.70;99.90;;;;;;615919;232;26853;-67
2022/08/21 01:47:12;;;;;;;3.03;2.80;;;18.60;99.90;;;;;;615950;232;26639;-66
2022/08/21 01:49:40;;;;;;;3.00;2.80;;;18.50;99.90;;;;;;615878;232;26858;-66
2022/08/21 01:52:07;;;;;;;2.40;2.30;;;18.50;99.90;;;;;;615890;232;26609;-67
2022/08/21 01:54:34;;;;;;;3.28;2.75;;;18.50;99.90;;;;;;615675;232;26820;-66
2022/08/21 01:57:02;;;;;;;2.83;2.62;;;18.50;99.90;;;;;;615585;234;26880;-67
2022/08/21 01:59:29;;;;;;;3.00;2.80;;;18.50;99.90;;;;;;615653;233;26586;-67
2022/08/21 02:01:57;;;;;;;2.92;2.70;;;18.50;99.90;;;;;;615618;234;26592;-67
2022/08/21 02:04:25;;;;;;;2.90;2.70;;;18.50;99.90;;;;;;615582;233;26580;-67
2022/08/21 02:06:52;;;;;;;2.97;2.78;;;18.40;99.90;;;;;;615609;228;26562;-67
2022/08/21 02:09:21;;;;;;;3.10;2.35;;;18.40;99.90;;;;;;615640;234;26569;-67
2022/08/21 02:11:48;;;;;;;2.42;2.33;;;18.30;99.90;;;;;;615526;233;26887;-67
2022/08/21 02:14:15;;;;;;;4.37;2.67;;;18.30;99.90;;;;;;615611;234;27256;-67
2022/08/21 02:16:42;;;;;;;3.62;2.62;;;18.30;99.90;;;;;;615744;227;26561;-67
2022/08/21 02:19:09;;;;;;;3.08;2.50;;;18.30;99.90;;;;;;615722;233;26814;-67
2022/08/21 02:21:36;;;;;;;4.18;2.72;;;18.30;99.90;;;;;;615633;233;26560;-68
2022/08/21 02:24:04;;;;;;;2.83;2.62;;;18.30;99.90;;;;;;615676;233;26888;-68
2022/08/21 02:26:31;;;;;;;2.83;2.58;;;18.20;99.90;;;;;;615663;234;26798;-67
2022/08/21 02:28:58;;;;;;;4.65;2.62;;;18.20;99.90;;;;;;616377;231;26578;-67
2022/08/21 02:31:27;;;;;;;2.80;2.60;;;18.10;99.90;;;;;;617033;233;26600;-67
2022/08/21 02:33:55;;;;;;;2.20;2.00;;;18.10;99.90;;;;;;616650;233;26643;-67
2022/08/21 02:36:23;;;;;;;2.42;2.22;;;18.10;99.90;;;;;;616420;233;26563;-67
2022/08/21 02:38:50;;;;;;;2.70;2.50;;;18.00;99.90;;;;;;616240;233;26583;-67
2022/08/21 02:41:17;;;;;;;3.72;2.28;;;18.00;99.90;;;;;;616099;232;26560;-67
2022/08/21 02:43:44;;;;;;;3.12;2.58;;;18.00;99.90;;;;;;616174;231;26817;-67
2022/08/21 02:46:11;;;;;;;2.95;1.90;;;18.00;99.90;;;;;;616237;232;26556;-67
2022/08/21 02:48:39;;;;;;;2.25;2.05;;;18.00;99.90;;;;;;616012;233;26831;-67
2022/08/21 02:51:06;;;;;;;2.50;2.30;;;17.90;99.90;;;;;;615969;232;26632;-67
2022/08/21 02:53:33;;;;;;;2.20;2.00;;;17.90;99.90;;;;;;615952;233;26837;-67
2022/08/21 02:56:00;;;;;;;2.92;2.42;;;17.80;99.90;;;;;;615932;233;26612;-67
2022/08/21 02:58:27;;;;;;;2.30;2.10;;;17.80;99.90;;;;;;615985;233;26795;-67
2022/08/21 03:00:55;;;;;;;2.10;2.00;;;17.80;99.90;;;;;;615758;233;26619;-67
2022/08/21 03:03:22;;;;;;;2.53;2.17;;;17.70;99.90;;;;;;615980;232;27295;-67
2022/08/21 03:05:49;;;;;;;2.40;1.98;;;17.70;99.90;;;;;;615711;233;26560;-67
2022/08/21 03:08:16;;;;;;;2.58;2.15;;;17.70;99.90;;;;;;615630;233;26851;-67
2022/08/21 03:10:44;;;;;;;3.37;2.20;;;17.70;99.90;;;;;;615574;233;26565;-66
2022/08/21 03:13:12;;;;;;;2.03;1.92;;;17.60;99.90;;;;;;615587;234;26814;-66
2022/08/21 03:15:39;;;;;;;3.60;2.05;;;17.70;99.90;;;;;;615686;233;26596;-67
2022/08/21 03:18:06;;;;;;;2.08;1.77;;;17.70;99.90;;;;;;615675;234;26777;-67
2022/08/21 03:20:34;;;;;;;4.32;2.50;;;17.60;99.90;;;;;;615647;233;26552;-67
2022/08/21 03:23:03;;;;;;;4.87;2.45;;;17.60;99.90;;;;;;615510;234;26576;-67
2022/08/21 03:25:31;;;;;;;3.33;2.65;;;17.60;99.90;;;;;;615527;234;26596;-67
2022/08/21 03:27:58;;;;;;;2.78;2.20;;;17.60;99.90;;;;;;615483;234;26589;-67
2022/08/21 03:30:26;;;;;;;2.85;2.20;;;17.50;99.90;;;;;;615557;233;26615;-67
2022/08/21 03:32:53;;;;;;;5.30;2.30;;;17.50;99.90;;;;;;615558;234;26829;-67
2022/08/21 03:35:21;;;;;;;3.30;2.25;;;17.50;99.90;;;;;;615609;234;26606;-68
2022/08/21 03:37:49;;;;;;;1.95;1.85;;;17.50;99.90;;;;;;615574;233;26802;-68
2022/08/21 03:40:16;;;;;;;3.40;1.95;;;17.50;99.90;;;;;;616085;231;26826;-68
2022/08/21 03:42:43;;;;;;;2.05;1.95;;;17.50;99.90;;;;;;616913;233;26625;-68
2022/08/21 03:45:10;;;;;;;4.43;2.17;;;17.50;99.90;;;;;;616703;232;26857;-68
2022/08/21 03:47:38;;;;;;;2.67;1.95;;;17.50;99.90;;;;;;616568;232;26563;-68
2022/08/21 03:50:05;;;;;;;4.60;2.00;;;17.40;99.90;;;;;;616384;232;26537;-67
2022/08/21 03:52:32;;;;;;;3.58;2.37;;;17.40;99.90;;;;;;616237;233;26590;-67
2022/08/21 03:55:00;;;;;;;3.10;2.10;;;17.30;99.90;;;;;;616227;232;26867;-67
2022/08/21 03:57:27;;;;;;;2.17;1.98;;;17.40;99.90;;;;;;616218;232;26531;-68
2022/08/21 03:59:55;;;;;;;4.75;2.30;;;17.30;99.90;;;;;;615998;232;26831;-67
2022/08/21 04:02:22;;;;;;;1.95;1.85;;;17.30;99.90;;;;;;615978;233;27115;-68
2022/08/21 04:04:49;;;;;;;3.08;2.42;;;17.20;99.90;;;;;;615971;233;26635;-68
2022/08/21 04:07:17;;;;;;;2.17;1.98;;;17.20;99.90;;;;;;615933;232;26837;-68
2022/08/21 04:09:44;;;;;;;3.35;2.10;;;17.20;99.90;;;;;;615864;233;26601;-67
2022/08/21 04:12:13;;;;;;;1.90;1.70;;;17.20;99.90;;;;;;615901;232;26605;-68
2022/08/21 04:14:41;;;;;;;2.65;1.80;;;17.20;99.90;;;;;;615897;232;26653;-67
2022/08/21 04:17:07;;;;;;;2.90;1.83;;;17.20;99.90;;;;;;615712;232;26810;-68
2022/08/21 04:19:34;;;;;;;1.90;1.70;;;17.20;99.90;;;;;;615672;233;26590;-68
2022/08/21 04:22:02;;;;;;;2.05;1.75;;;17.20;99.90;;;;;;615610;233;27006;-68
2022/08/21 04:24:29;;;;;;;4.03;1.80;;;17.20;99.90;;;;;;615634;234;26605;-68
2022/08/21 04:26:56;;;;;;;2.25;1.80;;;17.20;99.90;;;;;;615703;233;27225;-68
2022/08/21 04:29:23;;;;;;;3.40;1.85;;;17.20;99.90;;;;;;615658;234;26554;-68
2022/08/21 04:31:52;;;;;;;2.67;1.73;;;17.10;99.90;;;;;;615594;233;26827;-68
2022/08/21 04:34:18;;;;;;;2.30;1.73;;;17.20;99.90;;;;;;615585;234;26600;-68
2022/08/21 04:36:45;;;;;;;2.35;1.83;;;17.20;99.90;;;;;;615583;234;27243;-68
2022/08/21 04:39:13;;;;;;;2.10;1.67;;;17.30;99.90;;;;;;615641;233;26553;-68
2022/08/21 04:41:41;;;;;;;2.65;1.98;;;17.30;99.90;;;;;;615602;233;26570;-68
2022/08/21 04:44:09;;;;;;;3.35;2.00;;;17.40;99.90;;;;;;615645;233;26588;-68
2022/08/21 04:46:37;;;;;;;1.70;1.60;;;17.30;99.90;;;;;;615647;233;26589;-68
2022/08/21 04:49:04;;;;;;;2.90;1.60;;;17.40;99.90;;;;;;615636;234;26823;-68
2022/08/21 04:51:32;;;;;;;1.87;1.45;;;17.50;99.90;;;;;;615779;231;26576;-68
2022/08/21 04:54:09;;;;;;;1.50;1.40;;;17.50;99.90;;;;;;617027;232;26632;-68
2022/08/21 04:56:47;;;;;;;1.70;1.60;;;17.50;99.90;;;;;;616627;233;26572;-68
2022/08/21 04:59:16;;;;;;;1.73;1.60;;;17.50;99.90;;;;;;616578;233;26535;-68
2022/08/21 05:01:44;;;;;;;2.47;1.77;;;17.50;99.90;;;;;;616283;232;26587;-68
2022/08/21 05:04:11;;;;;;;2.62;1.73;;;17.50;99.90;;;;;;616240;232;26831;-68
2022/08/21 05:06:38;;;;;;;2.33;1.60;;;17.60;99.90;;;;;;615930;233;26552;-68
2022/08/21 05:09:05;;;;;;;1.98;1.50;;;17.60;99.90;;;;;;616193;233;26798;-67
2022/08/21 05:11:33;;;;;;;2.75;1.87;;;17.50;99.90;;;;;;615878;233;26630;-68
2022/08/21 05:14:00;;;;;;;1.90;1.48;;;17.50;99.90;;;;;;615970;232;26635;-67
2022/08/21 05:16:28;;;;;;;2.35;1.62;;;17.60;99.90;;;;;;615956;232;26619;-68
2022/08/21 05:18:56;;;;;;;2.80;1.73;;;17.60;99.90;;;;;;615920;233;26613;-67
2022/08/21 05:21:24;;;;;;;2.03;1.60;;;17.70;99.90;;;;;;615928;232;26665;-67
2022/08/21 05:23:52;;;;;;;2.10;1.50;;;17.60;99.90;;;;;;615925;232;26635;-67
2022/08/21 05:26:19;;;;;;;1.60;1.50;;;17.60;99.90;;;;;;615976;233;26612;-67
2022/08/21 05:28:46;;;;;;;1.70;1.48;;;17.70;99.90;;;;;;615814;232;26626;-67
2022/08/21 05:31:15;;;;;;;3.12;1.73;;;17.80;99.90;;;;;;615570;228;26613;-68
2022/08/21 05:33:42;;;;;;;2.65;1.55;;;17.70;99.90;;;;;;615617;234;26583;-68
2022/08/21 05:36:09;;;;;;;1.77;1.60;;;17.80;99.90;;;;;;615672;233;26563;-68
2022/08/21 05:38:36;;;;;;;3.20;1.67;;;17.80;99.90;;;;;;615638;233;26798;-68
2022/08/21 05:41:04;;;;;;;1.85;1.70;;;17.80;99.90;;;;;;615640;233;26636;-68
2022/08/21 05:43:35;;;;;;;3.72;2.08;;;17.80;99.90;;;;;;615579;234;26595;-68
2022/08/21 05:45:59;;;;;;;2.15;1.90;;;17.90;99.90;;;;;;615328;234;26556;-68
2022/08/21 05:48:28;;;;;;;2.60;1.85;;;17.90;99.90;;;;;;615628;233;26581;-68
2022/08/21 05:50:56;;;;;;;1.58;1.37;;;18.00;99.90;;;;;;615597;233;26574;-68
2022/08/21 05:53:24;;;;;;;2.17;1.70;;;18.00;99.90;;;;;;615596;233;26587;-68
2022/08/21 05:55:52;;;;;;;2.62;1.67;;;18.10;99.90;;;;;;616035;234;26546;-68
2022/08/21 05:58:19;;;;;;;2.72;1.55;;;18.10;99.90;;;;;;615693;233;26559;-68
2022/08/21 06:00:47;;;;;;;2.58;1.60;;;18.20;99.90;;;;;;615599;233;26567;-68
2022/08/21 06:03:16;;;;;;;2.12;1.60;;;18.10;99.90;;;;;;615796;231;26807;-68
2022/08/21 06:05:42;;;;;;;3.12;1.65;;;18.10;99.90;;;;;;617187;232;26897;-68
2022/08/21 06:08:09;;;;;;;2.40;1.42;;;18.20;99.90;;;;;;616848;233;26625;-68
2022/08/21 06:10:37;;;;;;;2.78;1.70;;;18.10;99.90;;;;;;616568;228;26821;-68
2022/08/21 06:13:05;;;;;;;2.87;1.65;;;18.30;99.90;;;;;;616213;233;26572;-68
2022/08/21 06:15:32;;;;;;;2.50;1.30;;;18.40;99.90;;;;;;616220;233;26588;-68
2022/08/21 06:18:00;;;;;;;3.37;1.80;;;18.40;99.90;;;;;;616237;233;26549;-68
2022/08/21 06:20:28;;;;;;;1.65;1.40;;;18.30;99.90;;;;;;616238;232;26541;-68
2022/08/21 06:22:56;;;;;;;3.45;1.77;;;18.30;99.90;;;;;;615942;233;26633;-68
2022/08/21 06:25:23;;;;;;;1.80;1.50;;;18.30;99.90;;;;;;615939;232;26636;-68
2022/08/21 06:27:50;;;;;;;3.05;1.30;;;18.40;99.90;;;;;;615954;232;26798;-68
2022/08/21 06:30:17;;;;;;;2.17;1.52;;;18.40;99.90;;;;;;615943;232;26616;-68
2022/08/21 06:32:45;;;;;;;2.53;1.50;;;18.60;99.90;;;;;;615751;233;26901;-68
2022/08/21 06:35:12;;;;;;;2.05;1.80;;;18.60;99.90;;;;;;615947;232;26837;-68
2022/08/21 06:37:40;;;;;;;1.87;1.62;;;18.70;99.90;;;;;;615880;233;26595;-68
2022/08/21 06:40:08;;;;;;;4.72;1.70;;;18.90;99.90;;;;;;615838;232;26841;-68
2022/08/21 06:42:35;;;;;;;1.70;1.30;;;18.90;99.90;;;;;;615630;234;26583;-68
2022/08/21 06:45:03;;;;;;;3.75;1.70;;;18.80;99.90;;;;;;615645;233;26619;-68
2022/08/21 06:47:31;;;;;;;3.30;1.30;;;18.90;99.90;;;;;;615677;234;26589;-68
2022/08/21 06:49:59;;;;;;;4.87;1.50;;;19.10;99.90;;;;;;615669;233;26845;-68
2022/08/21 06:52:26;;;;;;;1.95;1.52;;;19.00;99.90;;;;;;615641;233;26841;-68
2022/08/21 06:54:53;;;;;;;1.65;1.40;;;19.20;99.90;;;;;;615656;233;26575;-68
2022/08/21 06:57:21;;;;;;;3.65;1.50;;;19.20;99.90;;;;;;615656;234;26561;-68
2022/08/21 06:59:48;;;;;;;3.42;1.73;;;19.40;99.90;;;;;;615624;233;26586;-67
2022/08/21 07:02:16;;;;;;;3.00;1.90;;;19.40;99.90;;;;;;615652;233;26586;-68
2022/08/21 07:04:43;;;;;;;2.70;1.48;;;19.40;99.90;;;;;;615673;233;26585;-68
2022/08/21 07:07:11;;;;;;;2.67;1.67;;;19.50;99.90;;;;;;615585;228;26606;-67
2022/08/21 07:09:39;;;;;;;3.60;1.80;;;19.70;99.90;;;;;;615646;233;26587;-68
2022/08/21 07:12:07;;;;;;;2.67;1.60;;;19.70;99.90;;;;;;615594;234;26589;-67
2022/08/21 07:14:36;;;;;;;2.75;1.80;;;19.70;99.90;;;;;;615642;231;26608;-67
2022/08/21 07:17:04;;;;;;;3.20;1.87;;;19.60;99.90;;;;;;617335;232;26613;-67
2022/08/21 07:19:31;;;;;;;2.10;1.90;;;19.60;99.90;;;;;;616675;233;26615;-68
2022/08/21 07:21:58;;;;;;;1.77;1.42;;;19.70;99.90;;;;;;616514;232;26567;-66
2022/08/21 07:24:25;;;;;;;2.28;1.50;;;19.90;99.90;;;;;;616222;233;26830;-66
2022/08/21 07:26:52;;;;;;;3.10;1.67;;;20.10;99.90;;;;;;616257;233;26564;-66
2022/08/21 07:29:20;;;;;;;3.95;1.60;;;20.10;99.90;;;;;;616250;232;26794;-67
2022/08/21 07:31:47;;;;;;;3.17;1.90;;;20.10;99.90;;;;;;616196;233;26582;-66
2022/08/21 07:34:14;;;;;;;2.03;1.70;;;20.20;99.90;;;;;;616035;232;26884;-66
2022/08/21 07:36:42;;;;;;;2.12;1.50;;;20.30;99.80;;;;;;615915;232;26599;-66
2022/08/21 07:39:08;;;;;;;2.87;1.75;;;20.30;99.40;;;;;;615945;232;26932;-66
2022/08/21 07:41:37;;;;;;;2.65;1.50;;;20.40;98.60;;;;;;615842;233;26611;-66
2022/08/21 07:44:03;;;;;;;3.97;1.65;;;20.50;98.10;;;;;;615895;233;27148;-67
2022/08/21 07:46:30;;;;;;;3.58;1.50;;;20.60;96.70;;;;;;615946;232;26640;-66
2022/08/21 07:48:57;;;;;;;1.55;1.30;;;20.60;96.00;;;;;;615959;232;26615;-66
2022/08/21 07:51:24;;;;;;;3.15;1.50;;;20.50;95.50;;;;;;615761;232;26599;-67
2022/08/21 07:53:52;;;;;;;2.92;1.65;;;20.60;95.00;;;;;;615923;234;26893;-66
2022/08/21 07:56:19;;;;;;;1.92;1.30;;;20.50;94.90;;;;;;616024;234;26526;-66
2022/08/21 07:58:47;;;;;;;2.37;1.12;;;20.60;94.20;;;;;;616023;233;26532;-66
2022/08/21 08:01:15;;;;;;;4.43;1.90;;;20.80;93.70;;;;;;615761;233;26569;-67
2022/08/21 08:03:43;;;;;;;2.45;1.15;;;21.00;93.10;;;;;;615611;233;26585;-66
2022/08/21 08:06:12;;;;;;;2.55;1.30;;;21.00;93.10;;;;;;615550;233;26565;-66
2022/08/21 08:08:37;;;;;;;2.03;1.40;;;21.10;92.90;;;;;;615493;234;26561;-67
2022/08/21 08:11:04;;;;;;;2.53;1.30;;;21.20;92.00;;;;;;615607;228;26774;-67
2022/08/21 08:13:33;;;;;;;4.40;1.73;;;21.00;91.60;;;;;;615645;234;27239;-67
2022/08/21 08:15:59;;;;;;;2.60;1.48;;;20.90;92.20;;;;;;615548;234;26584;-67
2022/08/21 08:18:26;;;;;;;1.95;1.30;;;21.00;91.70;;;;;;615610;233;26799;-67
2022/08/21 08:20:53;;;;;;;4.12;1.45;;;21.00;91.30;;;;;;615598;234;26560;-67
2022/08/21 08:23:20;;;;;;;1.77;1.23;;;21.10;91.40;;;;;;615617;233;26807;-67
2022/08/21 08:25:48;;;;;;;1.87;1.20;;;21.20;90.60;;;;;;615671;233;26565;-67
2022/08/21 08:28:15;;;;;;;1.60;1.27;;;21.30;90.90;;;;;;617169;231;26614;-67
2022/08/21 08:30:43;;;;;;;1.10;1.00;;;21.40;89.50;;;;;;616767;232;26573;-67
2022/08/21 08:33:11;;;;;;;2.28;1.27;;;21.40;89.50;;;;;;616483;233;26588;-67
2022/08/21 08:35:39;;;;;;;3.03;1.27;;;21.50;87.70;;;;;;616440;232;27130;-67
2022/08/21 08:38:05;;;;;;;2.50;1.20;;;21.60;87.50;;;;;;616128;233;26819;-67
2022/08/21 08:40:36;;;;;;;2.08;1.27;;;21.70;87.20;;;;;;616202;232;26732;-67
2022/08/21 08:43:05;;;;;;;2.75;1.40;;;21.80;87.30;;;;;;615660;233;26567;-66
2022/08/21 08:45:30;;;;;;;3.42;1.30;;;21.80;86.20;;;;;;615819;233;27231;-66
2022/08/21 08:47:58;;;;;;;3.42;1.50;;;21.70;85.10;;;;;;615751;233;26619;-66
2022/08/21 08:50:25;;;;;;;1.40;1.20;;;21.70;85.30;;;;;;615535;233;26860;-66
2022/08/21 08:52:53;;;;;;;1.23;1.12;;;21.70;84.80;;;;;;615733;233;26852;-66
2022/08/21 08:55:21;;;;;;;2.05;1.23;;;21.80;85.10;;;;;;615464;233;26656;-66
2022/08/21 08:57:48;;;;;;;2.80;1.45;;;22.10;84.90;;;;;;615614;233;26612;-66
2022/08/21 09:00:16;;;;;;;1.67;1.30;;;22.00;84.00;;;;;;615929;232;26603;-66
2022/08/21 09:02:44;;;;;;;2.78;1.20;;;22.10;83.30;;;;;;615703;233;26602;-66
2022/08/21 09:05:12;;;;;;;1.62;1.23;;;22.00;83.20;;;;;;615659;233;26600;-66
2022/08/21 09:07:38;;;;;;;2.60;1.35;;;21.90;83.70;;;;;;614535;234;27080;-66
2022/08/21 09:10:12;;;;;;;2.40;1.50;;;22.10;83.40;;;;;;614633;234;26560;-66
2022/08/21 09:12:50;;;;;;;2.42;1.30;;;22.40;81.90;;;;;;615239;234;26590;-66
2022/08/21 09:15:30;;;;;;;2.55;1.48;;;22.50;81.50;;;;;;615582;233;26605;-66
2022/08/21 09:18:17;;;;;;;3.95;1.33;;;22.40;81.10;;;;;;615562;228;26774;-66
2022/08/21 09:21:00;;;;;;;2.50;1.45;;;22.60;83.20;;;;;;614655;234;26579;-66
2022/08/21 09:23:43;;;;;;;2.10;1.17;;;22.70;80.50;;;;;;614349;234;26585;-66
2022/08/21 09:26:13;;;;;;;1.25;1.08;;;22.70;80.10;;;;;;615152;234;26625;-66
2022/08/21 09:28:42;;;;;;;1.65;1.20;;;23.10;79.30;;;;;;615509;234;26808;-66
2022/08/21 09:31:15;;;;;;;2.47;1.40;;;23.10;76.60;;;;;;615631;233;26806;-66
2022/08/21 09:33:42;;;;;;;3.70;1.48;;;23.10;76.20;;;;;;615045;234;26561;-66
2022/08/21 09:36:11;;;;;;;3.58;1.35;;;23.00;76.40;;;;;;615635;233;26556;-66
2022/08/21 09:38:38;;;;;;;2.95;1.40;;;22.90;76.00;;;;;;616435;231;26837;-66
2022/08/21 09:41:06;;;;;;;2.72;1.40;;;22.90;76.10;;;;;;617016;233;26620;-66
2022/08/21 09:43:33;;;;;;;1.52;1.10;;;22.80;76.00;;;;;;616497;233;26581;-66
2022/08/21 09:46:02;;;;;;;1.62;1.30;;;23.00;76.00;;;;;;616572;232;26804;-66
2022/08/21 09:48:30;;;;;;;3.72;1.58;;;23.00;74.80;;;;;;616220;232;26804;-66
2022/08/21 09:51:13;;;;;;;2.05;1.30;;;23.10;73.30;;;;;;616208;233;26569;-66
2022/08/21 09:53:42;;;;;;;2.10;1.17;;;23.00;73.10;;;;;;616090;233;26588;-66
2022/08/21 09:58:48;;;;;;;2.35;1.50;;;23.40;70.80;;;;;;615906;233;26644;-66
2022/08/21 10:01:19;;;;;;;2.90;1.40;;;23.40;69.50;;;;;;615877;232;26605;-66
2022/08/21 10:03:46;;;;;;;1.30;1.20;;;23.40;69.50;;;;;;615813;233;26870;-66
2022/08/21 10:06:20;;;;;;;1.55;1.30;;;23.30;70.50;;;;;;615940;232;26621;-66
2022/08/21 10:08:47;;;;;;;1.90;1.02;;;23.50;70.60;;;;;;615780;233;26844;-66
2022/08/21 10:11:14;;;;;;;1.87;1.40;;;23.60;70.10;;;;;;616377;231;26609;-67
2022/08/21 10:13:47;;;;;;;2.30;1.12;;;23.60;69.70;;;;;;615165;231;26841;-66
2022/08/21 10:16:16;;;;;;;2.62;1.30;;;23.90;69.80;;;;;;615061;230;27121;-66
2022/08/21 10:19:14;;;;;;;2.62;1.20;;;23.90;69.80;;;;;;616054;230;26938;-66
2022/08/21 10:22:01;;;;;;;2.80;1.17;;;23.90;69.70;;;;;;610486;231;26624;-66
2022/08/21 10:24:44;;;;;;;1.85;1.25;;;23.30;68.20;;;;;;608869;234;26612;-66
2022/08/21 10:27:36;;;;;;;2.30;1.52;;;23.30;68.20;;;;;;618723;230;26778;-66
2022/08/21 10:30:22;;;;;;;2.12;1.15;;;23.90;68.20;;;;;;617547;230;26600;-66
2022/08/21 10:32:57;;;;;;;2.67;1.33;;;23.90;68.20;;;;;;614953;230;26593;-66
2022/08/21 10:35:31;;;;;;;2.95;1.58;;;23.90;68.20;;;;;;613662;231;26644;-66
2022/08/21 10:38:23;;;;;;;3.90;1.30;;;24.00;65.80;;;;;;616567;231;26569;-65
2022/08/21 10:41:08;;;;;;;4.07;1.45;;;24.00;65.70;;;;;;610757;231;26586;-66
2022/08/21 10:44:09;;;;;;;2.15;1.48;;;23.40;63.70;;;;;;618305;231;26638;-66
2022/08/21 10:47:03;;;;;;;3.42;1.17;;;23.30;64.90;;;;;;614942;231;26543;-66
2022/08/21 10:49:36;;;;;;;1.83;1.27;;;23.70;64.90;;;;;;616639;231;26604;-66
2022/08/21 10:52:41;;;;;;;1.83;1.23;;;23.80;65.00;;;;;;617897;231;26599;-66
2022/08/21 10:55:17;;;;;;;1.48;1.30;;;23.80;66.00;;;;;;597314;229;26633;-66
2022/08/21 10:57:49;;;;;;;1.23;1.12;;;23.70;64.60;;;;;;617659;230;26585;-67
2022/08/21 11:00:41;;;;;;;2.95;1.37;;;23.60;64.60;;;;;;616350;228;26938;-66
2022/08/21 11:03:15;;;;;;;3.53;1.50;;;23.80;62.90;;;;;;616968;230;26593;-67
2022/08/21 11:06:07;;;;;;;3.15;1.15;;;23.90;62.60;;;;;;616364;230;26678;-67
2022/08/21 11:08:53;;;;;;;;;;;;;;;;;;;;;
2022/08/21 11:11:41;;;;;;;1.30;1.20;;;23.70;62.00;;;;;;615859;230;26593;-67
2022/08/21 11:14:35;;;;;;;1.62;1.15;;;23.70;62.00;;;;;;618550;226;26614;-67
2022/08/21 11:17:16;;;;;;;2.65;1.50;;;23.90;61.20;;;;;;614855;230;26770;-67
2022/08/21 11:19:57;;;;;;;1.52;1.10;;;24.00;60.00;;;;;;616997;230;26651;-65
2022/08/21 11:23:04;;;;;;;2.03;1.30;;;24.00;58.30;;;;;;619052;230;26541;-65
2022/08/21 11:25:39;;;;;;;3.37;1.42;;;23.70;57.90;;;;;;605359;235;26665;-65
2022/08/21 11:28:34;;;;;;;5.80;1.90;;;23.80;57.20;;;;;;606044;234;26574;-64
2022/08/21 11:31:32;;;;;;;8.85;1.98;;;23.80;57.10;;;;;;604738;235;26669;-64
2022/08/21 11:34:48;;;;;;;;;;;;;;;;;;;;;
2022/08/21 11:37:30;;;;;;;3.33;1.30;;;24.40;55.40;;;;;;596196;238;26676;-64
2022/08/21 11:40:26;;;;;;;;;;;;;;;;;;;;;
2022/08/21 11:43:06;;;;;;;2.60;1.30;;;24.40;54.30;;;;;;592921;242;26619;-65
2022/08/21 11:45:53;;;;;;;3.65;1.15;;;24.40;54.30;;;;;;592675;242;26647;-65
2022/08/21 11:48:54;;;;;;;2.40;1.00;;;24.70;56.00;;;;;;592939;242;26632;-65
2022/08/21 11:51:41;;;;;;;2.00;1.20;;;24.90;54.60;;;;;;592645;242;26655;-65
2022/08/21 11:54:39;;;;;;;1.15;1.00;;;24.90;55.00;;;;;;592174;242;26618;-65
2022/08/21 11:57:26;;;;;;;1.73;0.98;;;25.00;54.90;;;;;;590269;242;26639;-65
2022/08/21 12:00:10;;;;;;;2.62;0.95;;;25.00;54.90;;;;;;594822;239;26607;-65
2022/08/21 12:02:52;;;;;;;1.70;1.00;;;25.10;53.30;;;;;;602239;237;26618;-65
2022/08/21 12:05:32;;;;;;;1.10;1.00;;;25.10;53.40;;;;;;602136;239;26628;-65
2022/08/21 12:08:21;;;;;;;;;;;;;;;;;;;;;
2022/08/21 12:11:01;;;;;;;1.65;1.30;;;25.30;52.80;;;;;;601658;239;26668;-65
2022/08/21 12:13:44;;;;;;;1.58;1.23;;;25.30;52.80;;;;;;601883;239;26575;-65
2022/08/21 12:16:41;;;;;;;;;;;;;;;;;;;;;
2022/08/21 12:19:42;;;;;;;;;;;;;;;;;;;;;
2022/08/21 12:22:39;;;;;;;0.77;0.70;;;24.80;51.60;;;;;;601228;239;26624;-65
2022/08/21 12:25:17;;;;;;;1.00;0.90;;;24.70;51.50;;;;;;601250;238;26766;-64
2022/08/21 12:27:52;;;;;;;0.82;0.82;;;24.90;51.50;;;;;;601291;239;26620;-65
2022/08/21 12:31:06;;;;;;;2.42;1.17;;;25.00;52.10;;;;;;601265;239;26669;-65
2022/08/21 12:33:44;;;;;;;1.37;0.90;;;25.30;52.10;;;;;;601174;239;26691;-64
2022/08/21 12:36:25;;;;;;;1.80;1.20;;;25.40;51.40;;;;;;601152;239;26672;-65
2022/08/21 12:39:06;;;;;;;1.20;1.02;;;25.10;50.20;;;;;;601095;239;26671;-65
2022/08/21 12:41:58;;;;;;;0.85;0.85;;;25.10;49.80;;;;;;600902;239;26620;-65
2022/08/21 12:44:38;;;;;;;1.08;0.95;;;25.40;49.80;;;;;;600961;239;26644;-65
2022/08/21 12:47:44;;;;;;;0.90;0.90;;;25.60;49.40;;;;;;600967;239;26613;-65
2022/08/21 12:50:23;;;;;;;1.35;0.90;;;25.60;49.40;;;;;;599642;239;26592;-65
2022/08/21 12:53:01;;;;;;;1.15;0.90;;;25.80;48.10;;;;;;601303;239;26590;-64
2022/08/21 12:55:37;;;;;;;1.50;1.00;;;26.40;47.10;;;;;;601317;239;26618;-64
2022/08/21 12:58:21;;;;;;;1.83;1.00;;;26.40;47.10;;;;;;601029;239;26608;-64
2022/08/21 13:01:10;;;;;;;0.70;0.70;;;26.50;46.30;;;;;;600882;238;26616;-64
2022/08/21 13:03:59;;;;;;;;;;;;;;;;;;;;;
2022/08/21 13:07:00;;;;;;;1.60;0.90;;;26.60;47.60;;;;;;599769;238;26831;-64
2022/08/21 13:09:53;;;;;;;1.30;1.00;;;26.80;50.00;;;;;;601021;238;26632;-64
2022/08/21 13:12:29;;;;;;;1.55;0.88;;;27.30;48.30;;;;;;601070;238;26669;-64
2022/08/21 13:15:15;;;;;;;1.83;1.02;;;27.40;48.00;;;;;;602558;237;26899;-64
2022/08/21 13:18:02;;;;;;;1.25;0.90;;;27.40;47.50;;;;;;602341;238;26574;-64
2022/08/21 13:20:42;;;;;;;2.30;1.23;;;28.30;47.30;;;;;;601836;238;26611;-64
2022/08/21 13:23:16;;;;;;;1.73;1.10;;;29.20;46.70;;;;;;601679;239;26663;-68